Time;durP1;ratioP1;P1;durP2;ratioP2;P2;SDS_P1;SDS_P2;PMS_P1;PMS_P2;Temp;Humidity;BMP_temperature;BMP_pressure;BME280_temperature;BME280_humidity;BME280_pressure;Samples;Min_cycle;Max_cycle;Signal;HPM_P1;HPM_P2
2024/02/09 00:00:12;;;;;;;16.52;9.63;;;;;;;;;;5076563;28;20353;-29
2024/02/09 00:02:41;;;;;;;16.50;10.07;;;;;;;;;;5076550;28;20035;-29
2024/02/09 00:05:07;;;;;;;18.90;10.20;;;;;;;;;;5076834;28;20037;-29
2024/02/09 00:07:32;;;;;;;19.13;10.63;;;;;;;;;;5076129;28;20036;-29
2024/02/09 00:09:58;;;;;;;16.67;10.23;;;;;;;;;;5077196;28;20021;-29
2024/02/09 00:12:24;;;;;;;17.83;10.43;;;;;;;;;;5074739;28;20275;-29
2024/02/09 00:14:49;;;;;;;18.50;9.93;;;;;;;;;;5076053;28;20023;-29
2024/02/09 00:17:15;;;;;;;16.85;9.75;;;;;;;;;;5076197;28;20033;-30
2024/02/09 00:19:40;;;;;;;17.67;9.55;;;;;;;;;;5076206;28;20016;-29
2024/02/09 00:22:05;;;;;;;18.90;9.73;;;;;;;;;;5075870;28;20009;-29
2024/02/09 00:24:31;;;;;;;18.48;9.90;;;;;;;;;;5075879;28;20282;-30
2024/02/09 00:26:59;;;;;;;17.70;10.27;;;;;;;;;;5076024;28;20297;-29
2024/02/09 00:29:24;;;;;;;20.23;10.75;;;;;;;;;;5076022;28;20531;-29
2024/02/09 00:31:52;;;;;;;17.90;11.03;;;;;;;;;;5075782;28;20103;-29
2024/02/09 00:34:17;;;;;;;19.88;11.10;;;;;;;;;;5075622;28;20278;-29
2024/02/09 00:36:44;;;;;;;19.90;10.95;;;;;;;;;;5075577;28;20027;-29
2024/02/09 00:39:09;;;;;;;20.73;11.38;;;;;;;;;;5075863;28;20360;-29
2024/02/09 00:41:34;;;;;;;20.00;10.80;;;;;;;;;;5075600;28;20020;-30
2024/02/09 00:43:59;;;;;;;16.83;10.45;;;;;;;;;;5075497;28;20263;-29
2024/02/09 00:46:28;;;;;;;19.10;10.80;;;;;;;;;;5076019;28;20028;-29
2024/02/09 00:48:53;;;;;;;20.10;11.05;;;;;;;;;;5075619;28;20284;-29
2024/02/09 00:51:18;;;;;;;20.70;10.77;;;;;;;;;;5075879;28;20109;-29
2024/02/09 00:53:43;;;;;;;18.10;10.53;;;;;;;;;;5075371;28;20024;-29
2024/02/09 00:56:08;;;;;;;18.85;10.65;;;;;;;;;;5075659;28;20376;-29
2024/02/09 00:58:34;;;;;;;19.97;10.73;;;;;;;;;;5075768;28;20025;-30
2024/02/09 01:00:59;;;;;;;20.00;11.30;;;;;;;;;;5075107;28;20254;-29
2024/02/09 01:03:24;;;;;;;20.42;10.63;;;;;;;;;;5075639;28;20251;-29
2024/02/09 01:05:50;;;;;;;18.90;10.33;;;;;;;;;;5074938;28;20309;-29
2024/02/09 01:08:15;;;;;;;18.23;10.38;;;;;;;;;;5075201;28;20358;-29
2024/02/09 01:10:42;;;;;;;18.63;10.33;;;;;;;;;;5074541;28;20059;-29
2024/02/09 02:45:56;;;;;;;21.35;6.78;;;;;;;;;;5073469;28;20115;-30
2024/02/09 03:04:49;;;;;;;21.90;7.40;;;;;;;;;;5073762;28;20074;-30
2024/02/09 03:07:15;;;;;;;22.00;7.23;;;;;;;;;;5073724;28;20465;-30
2024/02/09 03:09:40;;;;;;;20.57;7.40;;;;;;;;;;5073228;28;20317;-29
2024/02/09 03:12:05;;;;;;;22.73;7.07;;;;;;;;;;5073619;28;20287;-30
2024/02/09 03:14:30;;;;;;;22.88;8.02;;;;;;;;;;5073401;28;20365;-30
2024/02/09 03:16:55;;;;;;;26.17;6.93;;;;;;;;;;5072965;28;20043;-29
2024/02/09 03:19:21;;;;;;;17.60;6.70;;;;;;;;;;5073255;28;20048;-30
2024/02/09 03:21:46;;;;;;;23.00;6.23;;;;;;;;;;5076104;28;20021;-29
2024/02/09 03:24:11;;;;;;;16.15;6.85;;;;;;;;;;5076969;28;20650;-30
2024/02/09 03:26:36;;;;;;;24.33;6.57;;;;;;;;;;5077239;28;20013;-30
2024/02/09 03:29:01;;;;;;;21.77;6.17;;;;;;;;;;5076878;28;20150;-30
2024/02/09 03:31:31;;;;;;;17.70;5.77;;;;;;;;;;5077396;28;20262;-29
2024/02/09 03:33:56;;;;;;;12.90;5.38;;;;;;;;;;5077344;28;20637;-30
2024/02/09 03:36:22;;;;;;;13.60;5.57;;;;;;;;;;5077203;28;20050;-30
2024/02/09 03:38:48;;;;;;;14.40;5.60;;;;;;;;;;5077003;28;20251;-29
2024/02/09 03:41:13;;;;;;;19.48;5.65;;;;;;;;;;5076868;28;20008;-30
2024/02/09 03:43:38;;;;;;;15.55;4.80;;;;;;;;;;5076701;28;20078;-29
2024/02/09 03:46:03;;;;;;;12.43;4.93;;;;;;;;;;5076871;28;20032;-30
2024/02/09 03:48:28;;;;;;;13.27;5.05;;;;;;;;;;5076853;28;20258;-30
2024/02/09 03:50:54;;;;;;;10.30;4.68;;;;;;;;;;5076996;28;20044;-29
2024/02/09 03:53:19;;;;;;;11.73;4.60;;;;;;;;;;5076492;28;20483;-30
2024/02/09 03:55:44;;;;;;;14.00;4.60;;;;;;;;;;5076341;28;20028;-30
2024/02/09 03:58:09;;;;;;;10.75;4.00;;;;;;;;;;5076648;28;20259;-29
2024/02/09 04:00:34;;;;;;;11.20;4.10;;;;;;;;;;5076658;28;20020;-29
2024/02/09 04:02:59;;;;;;;9.57;4.07;;;;;;;;;;5076809;28;20247;-30
2024/02/09 04:05:25;;;;;;;14.37;4.30;;;;;;;;;;5076198;28;20369;-29
2024/02/09 04:07:51;;;;;;;8.45;4.20;;;;;;;;;;5076500;28;20255;-30
2024/02/09 04:10:16;;;;;;;11.50;4.20;;;;;;;;;;5076194;28;20025;-30
2024/02/09 04:12:42;;;;;;;14.82;4.38;;;;;;;;;;5075953;28;20032;-30
2024/02/09 04:15:08;;;;;;;8.93;4.32;;;;;;;;;;5076032;28;20070;-29
2024/02/09 04:17:33;;;;;;;10.80;3.75;;;;;;;;;;5075945;28;20032;-29
2024/02/09 04:19:58;;;;;;;11.93;4.17;;;;;;;;;;5076413;28;20013;-30
2024/02/09 04:22:23;;;;;;;11.50;4.30;;;;;;;;;;5075853;28;20728;-30
2024/02/09 04:24:50;;;;;;;9.35;4.00;;;;;;;;;;5075816;28;20254;-30
2024/02/09 04:27:17;;;;;;;15.50;4.18;;;;;;;;;;5076114;28;20074;-29
2024/02/09 04:29:42;;;;;;;11.70;4.15;;;;;;;;;;5076884;28;20447;-29
2024/02/09 04:32:07;;;;;;;8.75;3.70;;;;;;;;;;5075344;28;20074;-29
2024/02/09 04:34:32;;;;;;;7.93;3.70;;;;;;;;;;5075763;28;20032;-30
2024/02/09 04:36:59;;;;;;;10.93;4.00;;;;;;;;;;5075625;28;20354;-29
2024/02/09 04:39:25;;;;;;;9.02;3.97;;;;;;;;;;5076674;28;20818;-29
2024/02/09 04:41:50;;;;;;;9.65;4.10;;;;;;;;;;5075580;28;20091;-30
2024/02/09 04:44:15;;;;;;;10.38;4.43;;;;;;;;;;5075515;28;20024;-30
2024/02/09 04:46:42;;;;;;;13.00;4.43;;;;;;;;;;5075802;28;20051;-30
2024/02/09 04:49:08;;;;;;;10.45;4.00;;;;;;;;;;5075403;28;20273;-29
2024/02/09 04:51:34;;;;;;;13.10;4.25;;;;;;;;;;5075613;28;20025;-29
2024/02/09 04:54:02;;;;;;;8.77;4.03;;;;;;;;;;5075297;28;20386;-29
2024/02/09 04:56:32;;;;;;;9.45;4.00;;;;;;;;;;5075229;28;20111;-30
2024/02/09 04:59:01;;;;;;;10.68;4.63;;;;;;;;;;5075806;28;20017;-29
2024/02/09 05:01:29;;;;;;;9.63;4.00;;;;;;;;;;5075197;28;20020;-29
2024/02/09 05:04:15;;;;;;;9.20;3.90;;;;;;;;;;5075377;28;20044;-29
2024/02/09 05:06:40;;;;;;;11.88;4.38;;;;;;;;;;5074538;28;20140;-29
2024/02/09 05:09:06;;;;;;;8.80;4.25;;;;;;;;;;5075274;28;20044;-30
2024/02/09 05:11:34;;;;;;;8.90;4.30;;;;;;;;;;5075172;28;20024;-29
2024/02/09 05:13:59;;;;;;;11.40;4.63;;;;;;;;;;5075192;28;20089;-30
2024/02/09 05:16:24;;;;;;;11.88;4.30;;;;;;;;;;5075003;28;20028;-30
2024/02/09 05:18:53;;;;;;;10.80;4.30;;;;;;;;;;5074766;28;20028;-29
2024/02/09 05:21:18;;;;;;;10.10;4.13;;;;;;;;;;5074662;28;20020;-30
2024/02/09 05:23:43;;;;;;;13.00;4.53;;;;;;;;;;5074597;28;20016;-30
2024/02/09 05:26:09;;;;;;;8.95;4.22;;;;;;;;;;5074572;28;20056;-30
2024/02/09 05:28:39;;;;;;;10.98;4.75;;;;;;;;;;5074502;28;20020;-29
2024/02/09 05:31:21;;;;;;;12.07;4.53;;;;;;;;;;5074785;28;20021;-31
2024/02/09 05:33:46;;;;;;;9.38;4.20;;;;;;;;;;5074888;28;20113;-30
2024/02/09 05:36:19;;;;;;;13.32;4.50;;;;;;;;;;5074784;28;20514;-30
2024/02/09 05:38:44;;;;;;;9.43;4.22;;;;;;;;;;5074473;28;20025;-29
2024/02/09 05:41:09;;;;;;;9.27;4.07;;;;;;;;;;5075017;28;20065;-30
2024/02/09 05:43:35;;;;;;;14.00;4.50;;;;;;;;;;5073704;28;20278;-30
2024/02/09 05:46:00;;;;;;;13.75;4.25;;;;;;;;;;5074262;28;20421;-29
2024/02/09 05:48:25;;;;;;;13.10;4.27;;;;;;;;;;5074859;28;20020;-30
2024/02/09 05:50:50;;;;;;;9.47;4.77;;;;;;;;;;5074245;28;20350;-29
2024/02/09 05:53:17;;;;;;;11.07;4.33;;;;;;;;;;5074727;28;20258;-30
2024/02/09 05:55:45;;;;;;;12.20;4.35;;;;;;;;;;5074338;28;20742;-30
2024/02/09 05:58:10;;;;;;;11.18;4.18;;;;;;;;;;5074344;28;20024;-30
2024/02/09 06:00:35;;;;;;;12.13;4.83;;;;;;;;;;5074585;28;20109;-29
2024/02/09 06:03:02;;;;;;;9.40;4.37;;;;;;;;;;5073990;28;20309;-29
2024/02/09 06:05:27;;;;;;;11.48;4.25;;;;;;;;;;5073964;28;20283;-29
2024/02/09 06:07:52;;;;;;;12.85;5.00;;;;;;;;;;5074189;28;20376;-30
2024/02/09 06:10:19;;;;;;;8.00;4.28;;;;;;;;;;5074109;28;20019;-29
2024/02/09 06:12:44;;;;;;;15.32;4.32;;;;;;;;;;5072493;28;20174;-30
2024/02/09 06:15:10;;;;;;;12.13;4.30;;;;;;;;;;5074098;28;20095;-29
2024/02/09 06:17:36;;;;;;;9.90;4.18;;;;;;;;;;5073940;28;20111;-30
2024/02/09 06:20:01;;;;;;;11.63;4.43;;;;;;;;;;5073776;28;20021;-29
2024/02/09 06:22:27;;;;;;;12.85;4.70;;;;;;;;;;5073970;28;20048;-29
2024/02/09 06:24:54;;;;;;;9.82;4.55;;;;;;;;;;5073816;28;20020;-29
2024/02/09 06:27:21;;;;;;;14.52;4.15;;;;;;;;;;5070943;28;20452;-29
2024/02/09 06:29:47;;;;;;;11.95;3.90;;;;;;;;;;5071852;28;20021;-30
2024/02/09 06:32:12;;;;;;;10.50;4.55;;;;;;;;;;5071495;28;20089;-29
2024/02/09 06:34:37;;;;;;;13.90;4.40;;;;;;;;;;5071778;28;20017;-29
2024/02/09 06:37:02;;;;;;;7.50;4.10;;;;;;;;;;5071654;28;20278;-30
2024/02/09 06:39:27;;;;;;;11.63;4.00;;;;;;;;;;5071883;28;20021;-29
2024/02/09 06:41:53;;;;;;;10.57;4.30;;;;;;;;;;5071321;28;20025;-34
2024/02/09 06:44:18;;;;;;;11.32;4.35;;;;;;;;;;5071564;28;20263;-29
2024/02/09 06:46:44;;;;;;;10.15;4.25;;;;;;;;;;5071319;28;20095;-30
2024/02/09 06:49:09;;;;;;;14.57;4.47;;;;;;;;;;5071294;28;20025;-29
2024/02/09 06:51:34;;;;;;;9.37;4.00;;;;;;;;;;5071191;28;20020;-30
2024/02/09 06:53:59;;;;;;;10.45;4.13;;;;;;;;;;5071164;28;20730;-29
2024/02/09 06:56:25;;;;;;;14.67;3.93;;;;;;;;;;5071912;28;20031;-29
2024/02/09 06:58:52;;;;;;;9.93;4.32;;;;;;;;;;5073575;28;20258;-29
2024/02/09 07:01:18;;;;;;;14.80;4.28;;;;;;;;;;5073461;28;20483;-29
2024/02/09 07:03:44;;;;;;;10.65;4.20;;;;;;;;;;5073217;28;20071;-29
2024/02/09 07:06:10;;;;;;;15.77;4.47;;;;;;;;;;5073476;28;20052;-29
2024/02/09 07:08:41;;;;;;;9.10;3.53;;;;;;;;;;5073439;28;20107;-30
2024/02/09 07:11:08;;;;;;;10.43;4.30;;;;;;;;;;5073029;28;20020;-29
2024/02/09 07:13:33;;;;;;;13.88;3.88;;;;;;;;;;5073550;28;20490;-29
2024/02/09 07:16:02;;;;;;;14.15;4.07;;;;;;;;;;5072994;28;20020;-29
2024/02/09 07:18:28;;;;;;;8.07;3.47;;;;;;;;;;5073313;28;20017;-29
2024/02/09 07:20:54;;;;;;;9.50;3.67;;;;;;;;;;5073413;28;20040;-29
2024/02/09 07:23:19;;;;;;;10.95;3.70;;;;;;;;;;5072926;28;20400;-29
2024/02/09 07:25:44;;;;;;;11.93;3.73;;;;;;;;;;5073642;28;20040;-30
2024/02/09 07:28:10;;;;;;;6.50;3.40;;;;;;;;;;5073256;28;20255;-29
2024/02/09 07:30:35;;;;;;;10.38;3.95;;;;;;;;;;5073138;28;20025;-29
2024/02/09 07:33:00;;;;;;;9.00;3.50;;;;;;;;;;5073175;28;20021;-29
2024/02/09 07:35:25;;;;;;;11.60;3.23;;;;;;;;;;5073440;28;20286;-29
2024/02/09 07:37:51;;;;;;;10.73;3.58;;;;;;;;;;5073076;28;20633;-30
2024/02/09 07:40:19;;;;;;;13.73;3.47;;;;;;;;;;5072771;28;20091;-30
2024/02/09 07:42:44;;;;;;;11.80;3.53;;;;;;;;;;5072962;28;20285;-30
2024/02/09 07:45:15;;;;;;;11.25;3.50;;;;;;;;;;5072676;28;20020;-29
2024/02/09 07:47:40;;;;;;;9.18;3.65;;;;;;;;;;5072571;28;20031;-29
2024/02/09 07:50:06;;;;;;;9.95;3.53;;;;;;;;;;5072741;28;20103;-29
2024/02/09 07:52:33;;;;;;;12.50;3.78;;;;;;;;;;5073288;28;20435;-30
2024/02/09 07:54:58;;;;;;;11.82;3.55;;;;;;;;;;5072564;28;20024;-29
2024/02/09 07:57:23;;;;;;;11.77;4.07;;;;;;;;;;5072887;28;20029;-29
2024/02/09 07:59:49;;;;;;;12.80;4.10;;;;;;;;;;5073226;28;20247;-30
2024/02/09 08:02:14;;;;;;;9.10;3.45;;;;;;;;;;5072418;28;20356;-29
2024/02/09 08:04:39;;;;;;;9.67;3.60;;;;;;;;;;5072001;28;20017;-30
2024/02/09 08:07:08;;;;;;;10.63;3.70;;;;;;;;;;5074013;28;20259;-29
2024/02/09 08:09:34;;;;;;;10.63;3.75;;;;;;;;;;5076105;28;20013;-29
2024/02/09 08:11:59;;;;;;;12.53;4.70;;;;;;;;;;5076426;28;20031;-29
2024/02/09 08:14:24;;;;;;;13.87;3.80;;;;;;;;;;5075951;28;20721;-29
2024/02/09 08:16:49;;;;;;;14.43;3.43;;;;;;;;;;5075872;28;20290;-30
2024/02/09 08:19:15;;;;;;;8.37;3.60;;;;;;;;;;5075881;28;20349;-29
2024/02/09 08:21:41;;;;;;;6.65;3.60;;;;;;;;;;5076155;28;20719;-30
2024/02/09 08:24:07;;;;;;;9.07;3.37;;;;;;;;;;5076175;28;20023;-29
2024/02/09 08:26:32;;;;;;;12.52;3.50;;;;;;;;;;5075887;28;20247;-30
2024/02/09 08:28:57;;;;;;;15.85;3.90;;;;;;;;;;5075970;28;20029;-29
2024/02/09 08:31:22;;;;;;;10.38;3.35;;;;;;;;;;5075753;28;20380;-29
2024/02/09 08:33:49;;;;;;;9.35;3.40;;;;;;;;;;5075919;28;20020;-30
2024/02/09 08:36:17;;;;;;;7.28;3.10;;;;;;;;;;5075533;28;20044;-29
2024/02/09 08:38:42;;;;;;;10.50;2.88;;;;;;;;;;5075883;28;20074;-29
2024/02/09 08:41:07;;;;;;;9.68;3.65;;;;;;;;;;5075538;28;20422;-29
2024/02/09 08:43:33;;;;;;;7.28;3.30;;;;;;;;;;5075499;28;20047;-29
2024/02/09 08:45:58;;;;;;;12.18;3.70;;;;;;;;;;5075359;28;20016;-29
2024/02/09 08:48:23;;;;;;;7.20;3.33;;;;;;;;;;5075899;28;20024;-29
2024/02/09 08:50:49;;;;;;;13.50;3.93;;;;;;;;;;5075673;28;20099;-29
2024/02/09 08:53:14;;;;;;;10.93;3.58;;;;;;;;;;5075608;28;20251;-29
2024/02/09 08:55:40;;;;;;;8.13;3.25;;;;;;;;;;5075636;28;20411;-29
2024/02/09 08:58:07;;;;;;;9.47;3.23;;;;;;;;;;5075223;28;20025;-29
2024/02/09 09:00:32;;;;;;;9.98;3.40;;;;;;;;;;5075168;28;20286;-30
2024/02/09 09:02:57;;;;;;;9.52;3.53;;;;;;;;;;5075140;28;20098;-29
2024/02/09 09:05:22;;;;;;;8.43;3.20;;;;;;;;;;5075004;28;20064;-30
2024/02/09 09:07:47;;;;;;;8.48;3.33;;;;;;;;;;5075140;28;20321;-29
2024/02/09 09:10:13;;;;;;;13.65;3.28;;;;;;;;;;5074949;28;20115;-30
2024/02/09 09:12:38;;;;;;;9.40;3.40;;;;;;;;;;5075120;28;20047;-29
2024/02/09 09:15:04;;;;;;;9.13;3.13;;;;;;;;;;5075072;28;20399;-30
2024/02/09 09:17:30;;;;;;;11.40;4.43;;;;;;;;;;5074648;28;20017;-29
2024/02/09 09:19:55;;;;;;;9.10;3.53;;;;;;;;;;5074327;28;20016;-29
2024/02/09 09:22:20;;;;;;;12.63;3.28;;;;;;;;;;5075018;28;20410;-30
2024/02/09 09:24:46;;;;;;;9.17;3.20;;;;;;;;;;5074624;28;20013;-29
2024/02/09 09:27:11;;;;;;;12.52;3.20;;;;;;;;;;5074886;28;20463;-29
2024/02/09 09:29:37;;;;;;;10.02;3.47;;;;;;;;;;5074582;28;20025;-35
2024/02/09 09:32:02;;;;;;;11.48;3.30;;;;;;;;;;5074652;28;20044;-30
2024/02/09 09:34:27;;;;;;;6.28;3.35;;;;;;;;;;5074485;28;20035;-29
2024/02/09 09:36:52;;;;;;;6.47;3.13;;;;;;;;;;5074565;28;20098;-30
2024/02/09 09:39:17;;;;;;;9.45;3.20;;;;;;;;;;5074713;28;20258;-29
2024/02/09 09:41:43;;;;;;;16.77;3.60;;;;;;;;;;5074345;28;20103;-30
2024/02/09 09:44:08;;;;;;;9.00;3.10;;;;;;;;;;5074369;28;20017;-29
2024/02/09 09:46:38;;;;;;;10.85;3.35;;;;;;;;;;5074533;28;20255;-29
2024/02/09 09:49:03;;;;;;;11.00;3.53;;;;;;;;;;5074501;28;20115;-29
2024/02/09 09:51:33;;;;;;;13.07;3.33;;;;;;;;;;5074411;28;20048;-30
2024/02/09 09:54:00;;;;;;;8.77;3.25;;;;;;;;;;5074218;28;20050;-29
2024/02/09 09:56:26;;;;;;;8.32;3.08;;;;;;;;;;5074028;28;20035;-30
2024/02/09 09:58:51;;;;;;;12.50;3.63;;;;;;;;;;5075098;28;20017;-30
2024/02/09 10:01:16;;;;;;;7.50;3.55;;;;;;;;;;5073962;28;20024;-29
2024/02/09 10:03:42;;;;;;;11.40;3.47;;;;;;;;;;5073925;28;20020;-29
2024/02/09 10:06:07;;;;;;;6.45;3.22;;;;;;;;;;5072305;28;20053;-29
2024/02/09 10:08:35;;;;;;;10.37;3.60;;;;;;;;;;5073555;28;20028;-29
2024/02/09 10:11:01;;;;;;;11.82;3.47;;;;;;;;;;5073655;28;20332;-30
2024/02/09 10:13:27;;;;;;;11.70;3.00;;;;;;;;;;5072932;28;20415;-29
2024/02/09 10:15:52;;;;;;;10.48;3.22;;;;;;;;;;5073309;28;20066;-29
2024/02/09 10:18:18;;;;;;;9.57;3.40;;;;;;;;;;5072573;28;20013;-29
2024/02/09 10:20:46;;;;;;;7.25;2.90;;;;;;;;;;5072870;28;20052;-29
2024/02/09 10:23:11;;;;;;;12.18;3.28;;;;;;;;;;5073116;28;20013;-30
2024/02/09 10:25:38;;;;;;;8.80;3.53;;;;;;;;;;5073463;28;20490;-30
2024/02/09 10:28:04;;;;;;;8.13;2.72;;;;;;;;;;5073459;28;20020;-29
2024/02/09 10:30:29;;;;;;;8.95;2.80;;;;;;;;;;5071849;28;20020;-30
2024/02/09 10:32:55;;;;;;;7.77;2.80;;;;;;;;;;5073480;28;20048;-29
2024/02/09 10:35:20;;;;;;;7.70;2.53;;;;;;;;;;5074086;28;20444;-29
2024/02/09 10:37:45;;;;;;;8.63;2.90;;;;;;;;;;5073826;28;20103;-30
2024/02/09 10:40:11;;;;;;;12.10;2.88;;;;;;;;;;5073715;28;20282;-29
2024/02/09 10:42:37;;;;;;;11.40;2.50;;;;;;;;;;5073637;28;20162;-29
2024/02/09 10:45:04;;;;;;;11.23;2.88;;;;;;;;;;5073534;28;20053;-29
2024/02/09 10:47:30;;;;;;;7.47;2.70;;;;;;;;;;5073909;28;20107;-30
2024/02/09 10:49:56;;;;;;;11.10;2.78;;;;;;;;;;5073471;28;20074;-29
2024/02/09 10:52:24;;;;;;;6.75;2.70;;;;;;;;;;5073416;28;20460;-29
2024/02/09 10:54:49;;;;;;;8.50;2.70;;;;;;;;;;5073207;28;20016;-30
2024/02/09 10:57:14;;;;;;;9.57;2.45;;;;;;;;;;5073343;28;20146;-29
2024/02/09 10:59:40;;;;;;;6.18;2.70;;;;;;;;;;5073322;28;20016;-30
2024/02/09 11:02:07;;;;;;;7.00;2.95;;;;;;;;;;5073013;28;20495;-29
2024/02/09 11:04:33;;;;;;;7.35;2.70;;;;;;;;;;5073163;28;20112;-30
2024/02/09 11:06:58;;;;;;;9.80;2.53;;;;;;;;;;5072944;28;20048;-29
2024/02/09 11:09:24;;;;;;;6.97;2.38;;;;;;;;;;5073162;28;20020;-29
2024/02/09 11:11:49;;;;;;;9.63;2.60;;;;;;;;;;5073325;28;20059;-29
2024/02/09 11:14:17;;;;;;;7.67;2.40;;;;;;;;;;5072777;28;20020;-29
2024/02/09 11:16:46;;;;;;;10.07;2.47;;;;;;;;;;5070335;28;20633;-29
2024/02/09 11:19:12;;;;;;;10.50;2.70;;;;;;;;;;5073545;28;20100;-30
2024/02/09 11:21:38;;;;;;;6.93;2.45;;;;;;;;;;5072176;28;20016;-29
2024/02/09 11:24:03;;;;;;;6.45;2.03;;;;;;;;;;5072130;28;20023;-29
2024/02/09 11:26:35;;;;;;;7.93;2.42;;;;;;;;;;5073196;28;20095;-29
2024/02/09 11:29:00;;;;;;;5.85;2.45;;;;;;;;;;5072225;28;20017;-30
2024/02/09 11:31:26;;;;;;;5.57;2.50;;;;;;;;;;5070865;28;20024;-29
2024/02/09 11:33:52;;;;;;;7.95;2.80;;;;;;;;;;5070752;28;20107;-29
2024/02/09 11:36:20;;;;;;;7.25;2.78;;;;;;;;;;5071539;28;20099;-30
2024/02/09 11:38:45;;;;;;;7.93;2.40;;;;;;;;;;5072015;28;20021;-29
2024/02/09 11:41:11;;;;;;;7.13;2.65;;;;;;;;;;5072591;28;20486;-29
2024/02/09 11:43:36;;;;;;;9.80;3.35;;;;;;;;;;5076224;28;20123;-29
2024/02/09 11:46:02;;;;;;;8.43;2.80;;;;;;;;;;5076923;28;20012;-29
2024/02/09 11:48:28;;;;;;;7.20;3.10;;;;;;;;;;5076740;28;20595;-29
2024/02/09 11:50:57;;;;;;;6.53;2.87;;;;;;;;;;5076525;28;20034;-29
2024/02/09 11:53:22;;;;;;;6.32;3.03;;;;;;;;;;5076670;28;20710;-29
2024/02/09 11:55:47;;;;;;;8.70;3.23;;;;;;;;;;5076322;28;20045;-30
2024/02/09 11:58:12;;;;;;;6.67;2.90;;;;;;;;;;5076329;28;20360;-29
2024/02/09 12:00:38;;;;;;;7.00;3.15;;;;;;;;;;5076433;28;20338;-29
2024/02/09 12:03:04;;;;;;;8.05;3.38;;;;;;;;;;5076426;28;20357;-29
2024/02/09 12:05:29;;;;;;;7.43;2.80;;;;;;;;;;5076281;28;20044;-29
2024/02/09 12:07:54;;;;;;;10.55;3.10;;;;;;;;;;5076675;28;20028;-29
2024/02/09 12:10:20;;;;;;;8.13;2.80;;;;;;;;;;5076102;28;20445;-29
2024/02/09 12:12:48;;;;;;;8.02;3.00;;;;;;;;;;5076056;28;20379;-29
2024/02/09 12:15:18;;;;;;;9.25;3.00;;;;;;;;;;5076725;28;20048;-30
2024/02/09 12:17:44;;;;;;;8.10;2.65;;;;;;;;;;5076215;28;20031;-29
2024/02/09 12:20:09;;;;;;;8.32;2.92;;;;;;;;;;5076395;28;20356;-29
2024/02/09 12:22:36;;;;;;;10.00;2.83;;;;;;;;;;5075793;28;20453;-29
2024/02/09 12:25:03;;;;;;;8.88;3.20;;;;;;;;;;5075709;28;20521;-29
2024/02/09 12:27:29;;;;;;;7.43;2.83;;;;;;;;;;5075985;28;20052;-29
2024/02/09 12:29:54;;;;;;;7.10;3.15;;;;;;;;;;5075927;28;20036;-29
2024/02/09 12:32:20;;;;;;;6.80;2.75;;;;;;;;;;5075646;28;20490;-28
2024/02/09 12:34:54;;;;;;;8.75;2.67;;;;;;;;;;5075539;28;20035;-29
2024/02/09 12:37:20;;;;;;;7.75;2.40;;;;;;;;;;5075750;28;20020;-29
2024/02/09 12:39:49;;;;;;;9.68;3.03;;;;;;;;;;5075096;28;20017;-29
2024/02/09 12:42:17;;;;;;;7.82;3.03;;;;;;;;;;5075343;28;20476;-29
2024/02/09 12:44:46;;;;;;;7.25;2.75;;;;;;;;;;5075224;28;20582;-29
2024/02/09 12:47:12;;;;;;;8.20;2.63;;;;;;;;;;5074927;28;20020;-30
2024/02/09 12:49:37;;;;;;;10.23;2.60;;;;;;;;;;5075138;28;20479;-29
2024/02/09 12:52:11;;;;;;;8.82;2.53;;;;;;;;;;5074813;28;20027;-29
2024/02/09 12:54:37;;;;;;;9.32;2.60;;;;;;;;;;5075471;28;20469;-29
2024/02/09 12:57:05;;;;;;;5.72;2.20;;;;;;;;;;5076252;28;20024;-28
2024/02/09 12:59:31;;;;;;;8.23;2.38;;;;;;;;;;5075485;28;20360;-29
2024/02/09 13:01:57;;;;;;;6.95;2.40;;;;;;;;;;5074132;28;20023;-29
2024/02/09 13:04:23;;;;;;;10.05;2.33;;;;;;;;;;5075420;28;20021;-29
2024/02/09 13:06:49;;;;;;;8.90;2.20;;;;;;;;;;5074855;28;20106;-29
2024/02/09 13:09:14;;;;;;;9.82;2.60;;;;;;;;;;5075153;28;20025;-28
2024/02/09 13:11:39;;;;;;;8.53;2.57;;;;;;;;;;5074942;28;20032;-29
2024/02/09 13:14:05;;;;;;;5.57;2.27;;;;;;;;;;5075483;28;20254;-29
2024/02/09 13:16:30;;;;;;;10.50;2.38;;;;;;;;;;5075015;28;20359;-29
2024/02/09 13:18:56;;;;;;;9.33;2.40;;;;;;;;;;5075375;28;20020;-29
2024/02/09 13:21:21;;;;;;;6.95;2.60;;;;;;;;;;5075063;28;20129;-29
2024/02/09 13:23:46;;;;;;;9.20;2.23;;;;;;;;;;5074845;28;20023;-29
2024/02/09 13:26:15;;;;;;;4.65;1.92;;;;;;;;;;5075402;28;20029;-29
2024/02/09 13:28:40;;;;;;;7.95;2.35;;;;;;;;;;5074853;28;20146;-29
2024/02/09 13:31:09;;;;;;;8.13;2.20;;;;;;;;;;5074847;28;20436;-29
2024/02/09 13:33:34;;;;;;;8.18;2.28;;;;;;;;;;5074846;28;20036;-29
2024/02/09 13:35:59;;;;;;;6.95;2.45;;;;;;;;;;5074513;28;20499;-29
2024/02/09 13:38:27;;;;;;;10.03;2.50;;;;;;;;;;5074524;28;20055;-30
2024/02/09 13:40:53;;;;;;;5.80;2.08;;;;;;;;;;5074728;28;20021;-29
2024/02/09 13:43:18;;;;;;;8.00;2.45;;;;;;;;;;5074577;28;20013;-30
2024/02/09 13:45:44;;;;;;;9.18;2.28;;;;;;;;;;5074911;28;20019;-30
2024/02/09 13:48:09;;;;;;;8.27;2.33;;;;;;;;;;5074531;28;20023;-29
2024/02/09 13:50:35;;;;;;;6.87;2.17;;;;;;;;;;5074214;28;20075;-31
2024/02/09 13:53:01;;;;;;;7.32;2.00;;;;;;;;;;5074397;28;20354;-30
2024/02/09 13:55:27;;;;;;;3.83;1.63;;;;;;;;;;5074739;28;20066;-29
2024/02/09 13:57:54;;;;;;;11.50;1.83;;;;;;;;;;5073857;28;20031;-29
2024/02/09 14:00:21;;;;;;;8.93;2.00;;;;;;;;;;5074049;28;20016;-30
2024/02/09 14:02:46;;;;;;;7.07;1.90;;;;;;;;;;5073947;28;20017;-30
2024/02/09 14:05:12;;;;;;;4.72;1.77;;;;;;;;;;5073417;28;20115;-30
2024/02/09 14:07:38;;;;;;;6.63;1.85;;;;;;;;;;5073908;28;20047;-29
2024/02/09 14:10:04;;;;;;;4.28;1.50;;;;;;;;;;5073752;28;20028;-29
2024/02/09 14:12:30;;;;;;;9.30;1.98;;;;;;;;;;5073768;28;20021;-29
2024/02/09 14:14:55;;;;;;;8.80;1.90;;;;;;;;;;5073815;28;20490;-29
2024/02/09 14:17:20;;;;;;;5.00;1.40;;;;;;;;;;5073670;28;20331;-30
2024/02/09 14:19:45;;;;;;;5.73;1.40;;;;;;;;;;5073943;28;20618;-29
2024/02/09 14:22:12;;;;;;;5.95;1.55;;;;;;;;;;5074006;28;20361;-30
2024/02/09 14:24:38;;;;;;;4.78;1.42;;;;;;;;;;5073545;28;20036;-29
2024/02/09 14:27:06;;;;;;;4.65;1.63;;;;;;;;;;5073905;28;20074;-29
2024/02/09 14:29:31;;;;;;;7.22;2.20;;;;;;;;;;5074106;28;20020;-29
2024/02/09 14:31:57;;;;;;;6.43;1.70;;;;;;;;;;5073487;28;20069;-29
2024/02/09 14:34:22;;;;;;;8.15;2.45;;;;;;;;;;5073846;28;20265;-29
2024/02/09 14:36:47;;;;;;;6.37;1.60;;;;;;;;;;5073400;28;20475;-29
2024/02/09 14:39:14;;;;;;;7.25;1.83;;;;;;;;;;5073420;28;20262;-29
2024/02/09 14:41:41;;;;;;;9.68;1.95;;;;;;;;;;5073578;28;20028;-29
2024/02/09 14:44:07;;;;;;;6.20;2.10;;;;;;;;;;5073534;28;20074;-29
2024/02/09 14:46:32;;;;;;;7.95;2.28;;;;;;;;;;5073501;28;20414;-29
2024/02/09 14:48:57;;;;;;;7.63;2.05;;;;;;;;;;5073301;28;20533;-29
2024/02/09 14:51:22;;;;;;;7.43;2.20;;;;;;;;;;5073343;28;20024;-29
2024/02/09 14:53:48;;;;;;;8.23;2.70;;;;;;;;;;5073548;28;20334;-29
2024/02/09 14:56:15;;;;;;;12.93;3.50;;;;;;;;;;5073511;28;20021;-29
2024/02/09 14:58:40;;;;;;;8.82;2.20;;;;;;;;;;5073461;28;20413;-29
2024/02/09 15:01:05;;;;;;;7.18;2.35;;;;;;;;;;5073449;28;20017;-29
2024/02/09 15:03:37;;;;;;;5.35;2.30;;;;;;;;;;5073100;28;20017;-30
2024/02/09 15:06:02;;;;;;;5.80;1.90;;;;;;;;;;5072446;28;20406;-33
2024/02/09 15:08:30;;;;;;;6.22;2.10;;;;;;;;;;5072579;28;20100;-29
2024/02/09 15:10:55;;;;;;;8.23;2.67;;;;;;;;;;5072461;28;20479;-30
2024/02/09 15:13:26;;;;;;;8.97;3.33;;;;;;;;;;5073304;28;20035;-30
2024/02/09 15:15:54;;;;;;;8.60;2.20;;;;;;;;;;5074060;28;20262;-29
2024/02/09 15:18:19;;;;;;;8.82;2.42;;;;;;;;;;5076868;28;20020;-29
2024/02/09 15:20:47;;;;;;;4.82;2.05;;;;;;;;;;5075034;28;20038;-29
2024/02/09 15:23:12;;;;;;;4.43;1.80;;;;;;;;;;5075372;28;20024;-29
2024/02/09 15:25:37;;;;;;;8.45;2.38;;;;;;;;;;5075609;28;20020;-29
2024/02/09 15:28:03;;;;;;;7.87;2.10;;;;;;;;;;5075287;28;20092;-29
2024/02/09 15:30:28;;;;;;;6.53;2.30;;;;;;;;;;5075982;28;20028;-29
2024/02/09 15:32:53;;;;;;;14.67;2.30;;;;;;;;;;5076772;28;20016;-29
2024/02/09 15:35:19;;;;;;;8.27;2.30;;;;;;;;;;5076834;28;20052;-29
2024/02/09 15:37:44;;;;;;;11.23;2.85;;;;;;;;;;5076918;28;20475;-29
2024/02/09 15:40:10;;;;;;;6.43;2.50;;;;;;;;;;5076686;28;20024;-29
2024/02/09 15:42:35;;;;;;;10.82;2.95;;;;;;;;;;5076878;28;20016;-29
2024/02/09 15:45:00;;;;;;;15.18;2.58;;;;;;;;;;5076863;28;20020;-29
2024/02/09 15:47:25;;;;;;;8.33;2.60;;;;;;;;;;5077208;28;20104;-28
2024/02/09 15:49:51;;;;;;;10.70;2.65;;;;;;;;;;5076583;28;20379;-28
2024/02/09 15:52:16;;;;;;;8.57;2.63;;;;;;;;;;5076449;28;20020;-29
2024/02/09 15:54:41;;;;;;;7.57;2.30;;;;;;;;;;5076651;28;20312;-29
2024/02/09 15:57:06;;;;;;;5.93;2.30;;;;;;;;;;5076290;28;20420;-29
2024/02/09 15:59:31;;;;;;;12.53;2.77;;;;;;;;;;5076300;28;20016;-29
2024/02/09 16:01:59;;;;;;;7.95;2.45;;;;;;;;;;5076568;28;20251;-28
2024/02/09 16:04:24;;;;;;;10.68;2.33;;;;;;;;;;5074906;28;20020;-30
2024/02/09 16:06:50;;;;;;;7.67;2.70;;;;;;;;;;5076017;28;20077;-29
2024/02/09 16:09:17;;;;;;;10.02;2.80;;;;;;;;;;5076309;28;20738;-30
2024/02/09 16:11:46;;;;;;;7.20;2.17;;;;;;;;;;5076216;28;20586;-30
2024/02/09 16:14:11;;;;;;;7.00;2.58;;;;;;;;;;5076082;28;20058;-30
2024/02/09 16:16:37;;;;;;;9.45;3.22;;;;;;;;;;5076508;28;20063;-30